createdAt,value
2019-04-29T00:01:23.196Z,4.77
2019-04-29T00:03:52.181Z,3.60
2019-04-29T00:06:21.465Z,3.63
2019-04-29T00:08:50.294Z,5.27
2019-04-29T00:11:19.114Z,6.70
2019-04-29T00:13:47.891Z,5.57
2019-04-29T00:16:34.846Z,4.53
2019-04-29T00:19:29.642Z,7.77
2019-04-29T00:22:00.016Z,4.80
2019-04-29T00:24:28.860Z,8.03
2019-04-29T00:26:58.014Z,6.13
2019-04-29T00:29:26.905Z,7.37
2019-04-29T00:31:55.654Z,4.40
2019-04-29T00:34:24.876Z,5.23
2019-04-29T00:37:07.205Z,2.93
2019-04-29T00:39:55.182Z,4.07
2019-04-29T00:42:46.334Z,6.70
2019-04-29T00:45:15.450Z,8.47
2019-04-29T00:47:44.426Z,5.37
2019-04-29T00:50:13.509Z,5.73
2019-04-29T00:52:42.330Z,7.83
2019-04-29T00:55:14.019Z,5.73
2019-04-29T00:57:43.177Z,6.40
2019-04-29T01:00:22.113Z,4.83
2019-04-29T01:02:51.013Z,4.10
2019-04-29T01:05:20.002Z,5.23
2019-04-29T01:07:48.934Z,6.13
2019-04-29T01:10:17.730Z,7.30
2019-04-29T01:12:46.612Z,5.70
2019-04-29T01:15:15.436Z,4.70
2019-04-29T01:17:44.329Z,7.67
2019-04-29T01:20:13.365Z,7.87
2019-04-29T01:22:42.578Z,11.50
2019-04-29T01:25:11.750Z,7.53
2019-04-29T01:27:46.130Z,5.93
2019-04-29T01:30:53.678Z,8.80
2019-04-29T01:33:22.788Z,6.00
2019-04-29T01:35:54.897Z,7.30
2019-04-29T01:38:23.986Z,7.72
2019-04-29T01:41:02.473Z,7.67
2019-04-29T01:44:02.898Z,11.30
2019-04-29T01:46:31.958Z,9.70
2019-04-29T01:49:01.027Z,6.23
2019-04-29T01:51:29.729Z,7.47
2019-04-29T01:53:58.715Z,7.70
2019-04-29T01:56:27.477Z,7.73
2019-04-29T01:58:56.345Z,10.60
2019-04-29T02:01:25.465Z,8.33
2019-04-29T02:03:54.194Z,9.83
2019-04-29T02:06:23.575Z,8.47
2019-04-29T02:08:54.689Z,10.50
2019-04-29T02:11:23.658Z,6.93
2019-04-29T02:13:52.391Z,11.77
2019-04-29T02:16:21.137Z,7.07
2019-04-29T02:18:50.036Z,8.60
2019-04-29T02:21:18.761Z,8.87
2019-04-29T02:23:56.577Z,8.63
2019-04-29T02:26:25.341Z,10.13
2019-04-29T02:28:54.003Z,9.43
2019-04-29T02:31:52.658Z,9.53
2019-04-29T02:34:21.582Z,11.50
2019-04-29T02:36:50.514Z,9.17
2019-04-29T02:39:40.183Z,12.67
2019-04-29T02:42:43.214Z,9.87
2019-04-29T02:45:17.322Z,9.43
2019-04-29T02:47:46.089Z,12.90
2019-04-29T02:50:14.868Z,10.17
2019-04-29T02:52:43.703Z,10.10
2019-04-29T02:55:14.570Z,11.30
2019-04-29T02:57:52.592Z,12.47
2019-04-29T03:00:55.717Z,8.63
2019-04-29T03:03:31.354Z,11.70
2019-04-29T03:06:01.636Z,11.37
2019-04-29T03:08:30.443Z,10.17
2019-04-29T03:11:00.942Z,9.83
2019-04-29T03:13:29.690Z,12.77
2019-04-29T03:15:58.940Z,11.60
2019-04-29T03:18:30.160Z,13.13
2019-04-29T03:21:11.636Z,8.70
2019-04-29T03:23:40.400Z,12.63
2019-04-29T03:26:09.386Z,10.30
2019-04-29T03:28:38.064Z,14.17
2019-04-29T03:31:06.782Z,13.30
2019-04-29T03:33:35.520Z,10.00
2019-04-29T03:36:04.402Z,9.90
2019-04-29T03:38:33.347Z,13.67
2019-04-29T03:41:02.112Z,13.63
2019-04-29T03:43:31.148Z,13.67
2019-04-29T03:46:00.439Z,12.67
2019-04-29T03:48:29.118Z,14.23
2019-04-29T03:50:57.872Z,13.33
2019-04-29T03:53:28.535Z,15.07
2019-04-29T03:55:57.339Z,14.17
2019-04-29T03:58:26.135Z,15.73
2019-04-29T04:01:01.609Z,14.80
2019-04-29T04:03:49.760Z,22.27
2019-04-29T04:06:41.921Z,17.80
2019-04-29T04:09:22.097Z,12.80
2019-04-29T04:11:51.190Z,13.07
2019-04-29T04:14:20.211Z,15.20
2019-04-29T04:17:14.542Z,15.07
2019-04-29T04:19:43.442Z,16.77
2019-04-29T04:22:12.144Z,19.33
2019-04-29T04:24:40.906Z,15.40
2019-04-29T04:27:09.606Z,19.12
2019-04-29T04:29:38.311Z,14.60
2019-04-29T04:32:07.385Z,17.30
2019-04-29T04:34:36.154Z,20.33
2019-04-29T04:37:05.961Z,18.57
2019-04-29T04:39:36.747Z,18.03
2019-04-29T04:42:05.653Z,15.93
2019-04-29T04:44:50.269Z,20.77
2019-04-29T04:47:20.293Z,17.43
2019-04-29T04:49:49.144Z,19.80
2019-04-29T04:52:17.908Z,20.33
2019-04-29T04:54:48.854Z,18.13
2019-04-29T04:57:17.553Z,16.30
2019-04-29T04:59:46.574Z,16.40
2019-04-29T05:02:15.397Z,19.65
2019-04-29T05:04:44.176Z,21.63
2019-04-29T05:07:13.145Z,15.83
2019-04-29T05:09:42.381Z,18.03
2019-04-29T05:12:13.950Z,20.40
2019-04-29T05:14:41.499Z,17.03
2019-04-29T05:17:11.270Z,18.57
2019-04-29T05:19:39.995Z,18.80
2019-04-29T05:22:08.998Z,17.23
2019-04-29T05:24:38.099Z,20.40
2019-04-29T05:27:06.974Z,19.07
2019-04-29T05:29:35.911Z,18.80
2019-04-29T05:32:04.951Z,20.97
2019-04-29T05:34:35.650Z,17.10
2019-04-29T05:37:18.243Z,20.97
2019-04-29T05:39:47.228Z,18.33
2019-04-29T05:42:17.257Z,20.67
2019-04-29T05:44:55.289Z,19.35
2019-04-29T05:47:34.498Z,16.97
2019-04-29T05:50:21.218Z,14.93
2019-04-29T05:52:55.874Z,16.57
2019-04-29T05:55:24.597Z,16.70
2019-04-29T05:58:02.925Z,20.10
2019-04-29T06:00:26.534Z,15.33
2019-04-29T06:02:55.633Z,20.57
2019-04-29T06:05:24.967Z,15.33
2019-04-29T06:07:56.247Z,18.70
2019-04-29T06:10:24.757Z,17.33
2019-04-29T06:12:54.228Z,17.50
2019-04-29T06:15:23.113Z,20.53
2019-04-29T06:17:51.937Z,19.70
2019-04-29T06:20:22.867Z,16.70
2019-04-29T06:22:51.989Z,19.03
2019-04-29T06:25:20.729Z,16.63
2019-04-29T06:27:49.479Z,17.73
2019-04-29T06:30:18.455Z,17.73
2019-04-29T06:32:47.125Z,24.00
2019-04-29T06:35:15.915Z,20.00
2019-04-29T06:37:44.640Z,20.73
2019-04-29T06:40:13.384Z,20.20
2019-04-29T06:42:42.106Z,17.42
2019-04-29T06:45:10.855Z,14.35
2019-04-29T06:47:39.634Z,18.10
2019-04-29T06:50:09.105Z,19.93
2019-04-29T06:52:37.788Z,15.32
2019-04-29T06:55:07.051Z,13.55
2019-04-29T06:57:36.082Z,12.20
2019-04-29T07:00:05.480Z,13.93
2019-04-29T07:02:34.160Z,15.13
2019-04-29T07:05:03.358Z,13.32
2019-04-29T07:07:32.024Z,9.40
2019-04-29T07:10:00.778Z,11.50
2019-04-29T07:12:29.547Z,12.43
2019-04-29T07:14:58.223Z,9.28
2019-04-29T07:17:27.204Z,9.95
2019-04-29T07:19:57.531Z,12.03
2019-04-29T07:22:27.602Z,12.82
2019-04-29T07:24:56.323Z,15.53
2019-04-29T07:27:25.076Z,16.55
2019-04-29T07:29:53.743Z,13.45
2019-04-29T07:32:22.946Z,13.43
2019-04-29T07:34:51.685Z,12.10
2019-04-29T07:37:20.602Z,11.48
2019-04-29T07:39:49.356Z,11.28
2019-04-29T07:42:18.401Z,10.55
2019-04-29T07:45:06.206Z,7.90
2019-04-29T07:47:35.858Z,7.03
2019-04-29T07:50:05.219Z,7.75
2019-04-29T07:52:34.498Z,11.05
2019-04-29T07:55:03.398Z,6.30
2019-04-29T07:57:32.237Z,8.55
2019-04-29T08:00:01.106Z,9.93
2019-04-29T08:02:30.052Z,10.65
2019-04-29T08:04:59.126Z,7.72
2019-04-29T08:07:28.114Z,11.35
2019-04-29T08:09:56.973Z,10.78
2019-04-29T08:12:26.964Z,11.97
2019-04-29T08:14:58.528Z,13.98
2019-04-29T08:17:26.774Z,16.33
2019-04-29T08:19:55.474Z,17.40
2019-04-29T08:22:27.754Z,18.43
2019-04-29T08:24:55.199Z,16.23
2019-04-29T08:27:24.517Z,14.75
2019-04-29T08:29:53.774Z,14.25
2019-04-29T08:32:22.613Z,14.68
2019-04-29T08:34:53.574Z,20.43
2019-04-29T08:37:24.867Z,11.97
2019-04-29T08:40:08.332Z,15.70
2019-04-29T08:42:26.751Z,15.53
2019-04-29T08:45:16.753Z,12.93
2019-04-29T08:47:46.730Z,14.30
2019-04-29T08:50:15.533Z,14.07
2019-04-29T08:52:44.573Z,16.40
2019-04-29T08:55:13.507Z,17.92
2019-04-29T08:57:48.634Z,15.75
2019-04-29T09:00:17.747Z,16.67
2019-04-29T09:02:49.249Z,19.15
2019-04-29T09:05:16.975Z,19.07
2019-04-29T09:07:45.721Z,15.03
2019-04-29T09:10:14.529Z,16.85
2019-04-29T09:12:43.414Z,13.70
2019-04-29T09:15:12.593Z,15.08
2019-04-29T09:17:41.279Z,24.85
2019-04-29T09:20:10.277Z,16.95
2019-04-29T09:22:42.669Z,18.67
2019-04-29T09:25:30.658Z,19.23
2019-04-29T09:28:01.032Z,14.10
2019-04-29T09:30:29.876Z,15.72
2019-04-29T09:32:58.660Z,17.15
2019-04-29T09:35:28.870Z,20.25
2019-04-29T09:37:58.408Z,20.20
2019-04-29T09:40:30.117Z,12.35
2019-04-29T09:43:25.269Z,24.25
2019-04-29T09:46:07.119Z,16.53
2019-04-29T09:48:36.136Z,18.90
2019-04-29T09:51:16.735Z,10.58
2019-04-29T09:53:35.514Z,20.20
2019-04-29T09:56:04.259Z,13.05
2019-04-29T09:58:33.138Z,14.30
2019-04-29T10:01:50.409Z,14.90
2019-04-29T10:04:39.599Z,22.70
2019-04-29T10:07:09.733Z,14.70
2019-04-29T10:09:38.742Z,19.25
2019-04-29T10:12:07.519Z,17.40
2019-04-29T10:14:36.653Z,19.97
2019-04-29T10:17:20.372Z,18.57
2019-04-29T10:20:11.677Z,17.95
2019-04-29T10:22:40.657Z,22.32
2019-04-29T10:25:09.986Z,18.32
2019-04-29T10:27:38.683Z,21.35
2019-04-29T10:30:08.688Z,11.55
2019-04-29T10:32:37.759Z,17.95
2019-04-29T10:35:10.465Z,22.37
2019-04-29T10:37:38.857Z,26.62
2019-04-29T10:40:20.074Z,23.60
2019-04-29T10:43:06.475Z,18.12
2019-04-29T10:45:53.331Z,21.62
2019-04-29T10:48:28.982Z,16.30
2019-04-29T10:50:58.062Z,20.70
2019-04-29T10:53:28.977Z,17.07
2019-04-29T10:56:00.889Z,16.48
2019-04-29T10:58:35.057Z,17.00
2019-04-29T11:02:01.146Z,15.35
2019-04-29T11:04:23.591Z,18.27
2019-04-29T11:06:52.478Z,22.13
2019-04-29T11:09:36.721Z,23.42
2019-04-29T11:12:08.865Z,18.80
2019-04-29T11:14:39.173Z,12.65
2019-04-29T11:17:16.015Z,19.45
2019-04-29T11:19:39.922Z,13.72
2019-04-29T11:22:10.587Z,15.80
2019-04-29T11:24:54.083Z,20.35
2019-04-29T11:27:26.938Z,13.87
2019-04-29T11:29:58.564Z,14.75
2019-04-29T11:32:39.803Z,17.02
2019-04-29T11:35:28.389Z,11.85
2019-04-29T11:37:59.897Z,18.35
2019-04-29T11:40:42.763Z,15.30
2019-04-29T11:42:57.138Z,16.62
2019-04-29T11:45:26.257Z,18.17
2019-04-29T11:47:54.929Z,18.30
2019-04-29T11:50:29.919Z,19.23
2019-04-29T11:52:58.971Z,20.27
2019-04-29T11:55:27.618Z,16.12
2019-04-29T11:58:02.368Z,19.82
2019-04-29T12:00:52.007Z,18.00
2019-04-29T12:03:21.011Z,21.90
2019-04-29T12:05:56.031Z,19.73
2019-04-29T12:08:25.167Z,15.83
2019-04-29T12:11:06.740Z,17.90
2019-04-29T12:13:34.538Z,17.30
2019-04-29T12:16:26.338Z,19.05
2019-04-29T12:18:59.981Z,15.32
2019-04-29T12:21:33.448Z,20.17
2019-04-29T12:24:03.513Z,13.78
2019-04-29T12:26:35.038Z,14.93
2019-04-29T12:29:02.823Z,14.15
2019-04-29T12:31:44.850Z,17.85
2019-04-29T12:34:30.145Z,14.07
2019-04-29T12:36:59.123Z,15.93
2019-04-29T12:39:45.618Z,16.75
2019-04-29T12:42:45.241Z,18.83
2019-04-29T12:45:25.023Z,12.85
2019-04-29T12:47:54.562Z,15.43
2019-04-29T12:50:23.387Z,18.12
2019-04-29T12:52:52.299Z,15.50
2019-04-29T12:55:43.628Z,14.23
2019-04-29T12:57:57.271Z,9.13
2019-04-29T13:00:30.659Z,15.55
2019-04-29T13:03:13.026Z,15.08
2019-04-29T13:06:09.493Z,13.00
2019-04-29T13:08:43.779Z,20.47
2019-04-29T13:11:14.715Z,12.40
2019-04-29T13:13:43.058Z,20.35
2019-04-29T13:16:44.831Z,18.67
2019-04-29T13:19:20.368Z,20.72
2019-04-29T13:21:48.055Z,24.33
2019-04-29T13:24:24.314Z,14.80
2019-04-29T13:26:47.170Z,18.35
2019-04-29T13:29:26.809Z,23.07
2019-04-29T13:31:46.565Z,22.62
2019-04-29T13:34:24.118Z,14.35
2019-04-29T13:37:06.674Z,14.55
2019-04-29T13:39:38.331Z,12.30
2019-04-29T13:41:57.849Z,13.68
2019-04-29T13:44:24.921Z,23.40
2019-04-29T13:47:18.809Z,19.87
2019-04-29T13:49:51.446Z,14.40
2019-04-29T13:52:20.399Z,18.48
2019-04-29T13:54:49.330Z,15.35
2019-04-29T13:57:18.121Z,14.80
2019-04-29T13:59:54.281Z,15.63
2019-04-29T14:02:32.325Z,13.65
2019-04-29T14:05:02.219Z,15.90
2019-04-29T14:07:31.197Z,14.58
2019-04-29T14:10:00.398Z,19.87
2019-04-29T14:15:00.288Z,17.05
2019-04-29T14:17:31.665Z,14.93
2019-04-29T14:19:59.617Z,15.20
2019-04-29T14:22:29.073Z,14.93
2019-04-29T14:24:58.110Z,21.07
2019-04-29T14:27:26.793Z,15.63
2019-04-29T14:29:55.508Z,12.80
2019-04-29T14:32:34.655Z,18.05
2019-04-29T14:35:02.206Z,21.68
2019-04-29T14:37:31.025Z,12.80
2019-04-29T14:40:02.895Z,20.75
2019-04-29T14:42:40.089Z,15.35
2019-04-29T14:45:26.811Z,24.37
2019-04-29T14:48:16.034Z,17.15
2019-04-29T14:50:49.481Z,11.30
2019-04-29T14:53:19.426Z,18.27
2019-04-29T14:55:47.533Z,14.83
2019-04-29T14:58:16.606Z,13.08
2019-04-29T15:01:03.848Z,8.20
2019-04-29T15:03:35.309Z,20.90
2019-04-29T15:06:07.175Z,9.90
2019-04-29T15:08:36.655Z,9.88
2019-04-29T15:11:08.945Z,7.25
2019-04-29T15:13:37.522Z,8.85
2019-04-29T15:16:22.321Z,14.35
2019-04-29T15:19:03.107Z,12.65
2019-04-29T15:21:43.787Z,8.65
2019-04-29T15:24:12.933Z,8.80
2019-04-29T15:26:41.675Z,14.87
2019-04-29T15:29:10.695Z,8.10
2019-04-29T15:31:42.427Z,13.68
2019-04-29T15:34:12.838Z,10.28
2019-04-29T15:36:42.005Z,9.75
2019-04-29T15:39:12.056Z,8.43
2019-04-29T15:41:41.317Z,10.40
2019-04-29T15:44:19.071Z,8.78
2019-04-29T15:46:47.953Z,10.35
2019-04-29T15:49:11.398Z,7.83
2019-04-29T15:51:44.151Z,11.05
2019-04-29T15:54:14.297Z,10.25
2019-04-29T15:56:42.078Z,12.63
2019-04-29T15:59:11.210Z,7.87
2019-04-29T16:01:41.608Z,5.40
2019-04-29T16:04:14.174Z,5.23
2019-04-29T16:07:00.114Z,6.62
2019-04-29T16:09:51.664Z,7.42
2019-04-29T16:12:45.337Z,6.47
2019-04-29T16:15:12.828Z,6.33
2019-04-29T16:17:41.945Z,7.47
2019-04-29T16:20:16.682Z,8.18
2019-04-29T16:22:45.673Z,7.78
2019-04-29T16:25:14.464Z,6.37
2019-04-29T16:27:51.464Z,10.25
2019-04-29T16:30:18.782Z,8.03
2019-04-29T16:32:45.053Z,5.47
2019-04-29T16:35:18.056Z,6.95
2019-04-29T16:37:44.372Z,8.78
2019-04-29T16:40:14.043Z,9.08
2019-04-29T16:43:01.770Z,10.13
2019-04-29T16:45:44.366Z,16.32
2019-04-29T16:48:12.462Z,5.80
2019-04-29T16:50:41.234Z,7.58
2019-04-29T16:53:10.610Z,5.15
2019-04-29T16:55:43.105Z,5.70
2019-04-29T16:58:17.697Z,5.90
2019-04-29T17:00:46.735Z,4.12
2019-04-29T17:03:12.879Z,7.42
2019-04-29T17:05:41.897Z,11.22
2019-04-29T17:08:15.192Z,4.72
2019-04-29T17:10:55.197Z,9.08
2019-04-29T17:13:24.141Z,8.50
2019-04-29T17:15:53.886Z,13.00
2019-04-29T17:18:22.713Z,3.95
2019-04-29T17:21:04.623Z,7.67
2019-04-29T17:23:26.574Z,8.20
2019-04-29T17:25:55.651Z,13.15
2019-04-29T17:28:30.198Z,15.98
2019-04-29T17:31:16.865Z,5.03
2019-04-29T17:33:57.775Z,6.12
2019-04-29T17:36:26.822Z,2.30
2019-04-29T17:38:55.573Z,6.17
2019-04-29T17:41:26.137Z,5.80
2019-04-29T17:44:18.769Z,8.83
2019-04-29T17:47:07.138Z,4.33
2019-04-29T17:49:45.382Z,9.97
2019-04-29T17:52:25.813Z,5.47
2019-04-29T17:54:57.341Z,5.62
2019-04-29T17:57:36.391Z,5.40
2019-04-29T18:00:43.770Z,5.30
2019-04-29T18:03:19.410Z,3.90
2019-04-29T18:05:57.068Z,5.70
2019-04-29T18:08:41.790Z,4.75
2019-04-29T18:11:10.677Z,10.45
2019-04-29T18:13:39.978Z,8.78
2019-04-29T18:16:17.570Z,8.48
2019-04-29T18:18:53.552Z,6.07
2019-04-29T18:21:52.958Z,9.25
2019-04-29T18:24:35.861Z,2.90
2019-04-29T18:27:03.361Z,4.05
2019-04-29T18:29:36.375Z,4.58
2019-04-29T18:32:05.241Z,2.02
2019-04-29T18:34:37.288Z,4.87
2019-04-29T18:37:06.450Z,8.43
2019-04-29T18:39:36.118Z,1.70
2019-04-29T18:42:06.752Z,3.65
2019-04-29T18:44:35.874Z,2.62
2019-04-29T18:47:05.524Z,3.73
2019-04-29T18:49:34.619Z,10.63
2019-04-29T18:52:05.643Z,4.42
2019-04-29T18:54:35.882Z,4.40
2019-04-29T18:57:09.178Z,2.87
2019-04-29T18:59:38.098Z,4.97
2019-04-29T19:02:09.326Z,2.65
2019-04-29T19:04:58.539Z,5.90
2019-04-29T19:07:27.527Z,5.37
2019-04-29T19:09:56.549Z,4.08
2019-04-29T19:12:25.767Z,6.78
2019-04-29T19:14:59.742Z,5.08
2019-04-29T19:17:30.770Z,3.45
2019-04-29T19:20:02.410Z,6.98
2019-04-29T19:22:33.340Z,8.87
2019-04-29T19:25:08.694Z,4.00
2019-04-29T19:27:39.750Z,5.37
2019-04-29T19:30:08.760Z,5.05
2019-04-29T19:32:44.519Z,10.80
2019-04-29T19:35:12.734Z,5.92
2019-04-29T19:37:41.845Z,4.55
2019-04-29T19:40:10.626Z,4.13
2019-04-29T19:42:39.946Z,4.00
2019-04-29T19:45:13.356Z,6.23
2019-04-29T19:47:40.673Z,3.80
2019-04-29T19:50:10.617Z,9.13
2019-04-29T19:52:39.314Z,8.30
2019-04-29T19:55:08.060Z,4.07
2019-04-29T19:57:42.209Z,4.77
2019-04-29T20:00:08.675Z,2.93
2019-04-29T20:02:45.069Z,5.37
2019-04-29T20:05:23.793Z,7.00
2019-04-29T20:07:51.564Z,12.13
2019-04-29T20:10:21.656Z,4.43
2019-04-29T20:12:53.212Z,4.70
2019-04-29T20:15:25.822Z,6.37
2019-04-29T20:18:23.732Z,4.43
2019-04-29T20:21:08.556Z,2.70
2019-04-29T20:23:36.179Z,6.80
2019-04-29T20:26:13.739Z,4.20
2019-04-29T20:28:36.012Z,3.40
2019-04-29T20:31:19.225Z,7.17
2019-04-29T20:33:42.050Z,4.80
2019-04-29T20:36:33.233Z,3.73
2019-04-29T20:38:48.629Z,5.20
2019-04-29T20:41:24.975Z,4.17
2019-04-29T20:43:48.016Z,4.73
2019-04-29T20:46:18.006Z,5.30
2019-04-29T20:48:50.412Z,3.00
2019-04-29T20:51:18.104Z,2.83
2019-04-29T20:54:03.860Z,5.50
2019-04-29T20:56:35.404Z,3.77
2019-04-29T20:59:12.530Z,5.47
2019-04-29T21:01:43.193Z,1.93
2019-04-29T21:04:10.541Z,2.60
2019-04-29T21:06:56.533Z,3.33
2019-04-29T21:09:10.029Z,3.67
2019-04-29T21:11:51.613Z,4.30
2019-04-29T21:14:27.142Z,9.00
2019-04-29T21:16:55.202Z,6.40
2019-04-29T21:19:24.462Z,2.97
2019-04-29T21:21:55.084Z,4.73
2019-04-29T21:24:25.082Z,4.63
2019-04-29T21:26:55.331Z,3.70
2019-04-29T21:29:25.590Z,6.40
2019-04-29T21:31:58.468Z,6.13
2019-04-29T21:34:29.567Z,3.10
2019-04-29T21:37:16.851Z,8.93
2019-04-29T21:39:56.398Z,6.37
2019-04-29T21:42:41.855Z,3.47
2019-04-29T21:45:13.527Z,2.70
2019-04-29T21:47:47.368Z,5.03
2019-04-29T21:50:14.827Z,2.77
2019-04-29T21:52:44.771Z,4.83
2019-04-29T21:55:16.090Z,6.07
2019-04-29T21:57:45.097Z,3.40
2019-04-29T22:00:24.007Z,4.93
2019-04-29T22:02:49.146Z,8.77
2019-04-29T22:05:18.567Z,8.20
2019-04-29T22:07:47.627Z,5.63
2019-04-29T22:10:19.813Z,4.07
2019-04-29T22:12:50.875Z,10.77
2019-04-29T22:15:29.802Z,3.47
2019-04-29T22:17:56.166Z,3.63
2019-04-29T22:20:19.597Z,6.87
2019-04-29T22:22:48.274Z,6.43
2019-04-29T22:25:17.029Z,9.70
2019-04-29T22:27:45.918Z,7.77
2019-04-29T22:30:18.520Z,12.83
2019-04-29T22:32:51.665Z,12.23
2019-04-29T22:35:17.919Z,8.87
2019-04-29T22:37:46.579Z,5.50
2019-04-29T22:40:17.452Z,8.50
2019-04-29T22:43:08.398Z,4.50
2019-04-29T22:45:34.020Z,7.60
2019-04-29T22:48:14.224Z,4.37
2019-04-29T22:50:38.013Z,6.67
2019-04-29T22:53:05.929Z,3.00
2019-04-29T22:55:37.700Z,8.27
2019-04-29T22:58:09.809Z,5.63
2019-04-29T23:00:36.308Z,6.27
2019-04-29T23:03:05.210Z,5.00
2019-04-29T23:05:35.692Z,5.90
2019-04-29T23:08:05.111Z,6.13
2019-04-29T23:10:35.547Z,4.33
2019-04-29T23:13:06.193Z,7.80
2019-04-29T23:15:35.849Z,6.43
2019-04-29T23:18:05.874Z,4.73
2019-04-29T23:21:03.638Z,5.03
2019-04-29T23:23:38.207Z,6.47
2019-04-29T23:26:05.685Z,7.63
2019-04-29T23:28:35.613Z,5.57
2019-04-29T23:31:04.485Z,11.13
2019-04-29T23:33:33.146Z,6.87
2019-04-29T23:36:01.979Z,6.27
2019-04-29T23:38:30.730Z,4.27
2019-04-29T23:40:59.485Z,5.20
2019-04-29T23:43:28.887Z,7.33
2019-04-29T23:46:00.444Z,6.50
2019-04-29T23:48:38.618Z,4.60
2019-04-29T23:50:59.246Z,4.17
2019-04-29T23:53:28.150Z,5.10
2019-04-29T23:56:00.163Z,7.50
2019-04-29T23:58:46.732Z,9.37
